.
WxDataArchive / Data Records for 2008-01-12
2008-01-11 January 2008 2008-01-13

Data Records for Saturday, 12 January 2008

Time	Temp	Chill	HIndex	Humid	Dewpt	 Wind 	HiWind	WindDir	Rain 	Barom 
-----	----	-----	------	-----	-----	------	------	-------	-----	----- 
00:00	33.1	33.1	33.1	77	26.7	1	4	248	0.00	29.898 
00:05	33.1	33.1	33.1	77	26.7	1	3	248	0.00	29.898 
00:10	33.1	33.1	33.1	77	26.7	2	5	248	0.00	29.899 
00:15	33.1	33.1	33.1	77	26.7	1	4	248	0.00	29.900 
00:20	33.1	33.1	33.1	77	26.7	1	3	248	0.00	29.901 
00:25	32.9	32.9	32.9	78	26.8	1	3	248	0.00	29.901 
00:30	32.9	32.9	32.9	77	26.5	1	3	248	0.00	29.901 
00:35	32.9	32.9	32.9	78	26.8	0	4	248	0.00	29.901 
00:40	32.9	32.9	32.9	77	26.5	1	3	248	0.00	29.903 
00:45	32.9	32.9	32.9	77	26.5	2	5	248	0.00	29.906 
00:50	32.9	32.9	32.9	77	26.5	1	3	248	0.00	29.909 
00:55	32.9	32.9	32.9	77	26.5	1	4	248	0.00	29.911 
01:00	32.9	32.9	32.9	77	26.5	1	5	248	0.00	29.911 
01:05	32.9	32.9	32.9	77	26.5	0	3	248	0.00	29.914 
01:10	32.9	32.9	32.9	77	26.5	2	7	248	0.00	29.913 
01:15	32.9	32.9	32.9	77	26.5	1	4	248	0.00	29.913 
01:20	32.9	32.9	32.9	77	26.5	1	3	248	0.00	29.915 
01:25	32.9	32.9	32.9	77	26.5	1	6	248	0.00	29.916 
01:30	32.9	32.9	32.9	77	26.5	0	3	248	0.00	29.918 
01:35	32.9	32.9	32.9	77	26.5	1	3	248	0.00	29.920 
01:40	32.9	32.9	32.9	78	26.8	0	2	248	0.00	29.923 
01:45	32.9	32.9	32.9	78	26.8	0	1	248	0.00	29.922 
01:50	32.8	32.8	32.8	78	26.7	0	1	248	0.00	29.925 
01:55	32.8	32.8	32.8	78	26.7	0	2	248	0.00	29.927 
02:00	32.8	32.8	32.8	78	26.7	1	3	248	0.00	29.931 
02:05	32.8	32.8	32.8	79	27.0	0	2	248	0.00	29.929 
02:10	32.7	32.7	32.7	78	26.6	0	2	248	0.00	29.930 
02:15	32.7	32.7	32.7	78	26.6	1	3	248	0.00	29.930 
02:20	32.7	32.7	32.7	78	26.6	1	4	248	0.00	29.934 
02:25	32.7	32.7	32.7	78	26.6	0	2	248	0.00	29.938 
02:30	32.7	32.7	32.7	77	26.3	0	1	248	0.00	29.938 
02:35	32.7	32.7	32.7	77	26.3	0	2	248	0.00	29.939 
02:40	32.7	32.7	32.7	77	26.3	0	1	248	0.00	29.939 
02:45	32.7	32.7	32.7	77	26.3	0	2	248	0.00	29.939 
02:50	32.7	32.7	32.7	77	26.3	0	1	248	0.00	29.941 
02:55	32.7	32.7	32.7	76	26.0	1	5	270	0.00	29.937 
03:00	32.7	32.7	32.7	76	26.0	0	3	248	0.00	29.939 
03:05	32.7	32.7	32.7	77	26.3	0	1	248	0.00	29.943 
03:10	32.7	32.7	32.7	77	26.3	0	1	248	0.00	29.944 
03:15	32.7	32.7	32.7	77	26.3	0	2	248	0.00	29.945 
03:20	32.7	32.7	32.7	77	26.3	0	2	248	0.00	29.946 
03:25	32.7	32.7	32.7	77	26.3	1	3	248	0.00	29.948 
03:30	32.7	32.7	32.7	78	26.6	0	2	270	0.00	29.949 
03:35	32.7	32.7	32.7	78	26.6	0	2	270	0.00	29.950 
03:40	32.7	32.7	32.7	77	26.3	1	3	270	0.00	29.949 
03:45	32.7	32.7	32.7	77	26.3	1	3	248	0.00	29.950 
03:50	32.7	32.7	32.7	76	26.0	1	2	248	0.00	29.950 
03:55	32.7	32.7	32.7	75	25.7	1	3	248	0.00	29.950 
04:00	32.5	32.5	32.5	74	25.2	0	2	248	0.00	29.951 
04:05	32.5	32.5	32.5	74	25.2	1	4	248	0.00	29.951 
04:10	32.5	32.5	32.5	75	25.5	0	2	248	0.00	29.951 
04:15	32.5	32.5	32.5	75	25.5	0	1	248	0.00	29.950 
04:20	32.5	32.5	32.5	74	25.2	0	1	248	0.00	29.951 
04:25	32.4	32.4	32.4	74	25.1	0	2	248	0.00	29.951 
04:30	32.4	32.4	32.4	74	25.1	0	2	248	0.00	29.958 
04:35	32.4	32.4	32.4	74	25.1	1	3	248	0.00	29.961 
04:40	32.4	32.4	32.4	74	25.1	1	2	270	0.00	29.963 
04:45	32.4	32.4	32.4	73	24.7	1	3	248	0.00	29.964 
04:50	32.4	32.4	32.4	73	24.7	1	3	248	0.00	29.964 
04:55	32.2	32.2	32.2	73	24.5	1	2	248	0.00	29.967 
05:00	32.2	32.2	32.2	73	24.5	1	3	248	0.00	29.974 
05:05	32.2	32.2	32.2	72	24.2	1	5	248	0.00	29.977 
05:10	32.1	32.1	32.1	72	24.1	0	2	248	0.00	29.979 
05:15	32.1	32.1	32.1	72	24.1	0	2	248	0.00	29.980 
05:20	32.1	32.1	32.1	73	24.4	0	4	248	0.00	29.981 
05:25	32.1	32.1	32.1	73	24.4	0	2	248	0.00	29.984 
05:30	31.9	31.9	31.9	73	24.2	0	2	248	0.00	29.985 
05:35	31.9	31.9	31.9	73	24.2	0	2	248	0.00	29.986 
05:40	31.9	31.9	31.9	73	24.2	0	3	248	0.00	29.988 
05:45	31.9	31.9	31.9	73	24.2	0	3	248	0.00	29.988 
05:50	31.8	31.8	31.8	72	23.8	0	3	248	0.00	29.993 
05:55	31.8	31.8	31.8	72	23.8	1	3	248	0.00	29.996 
06:00	31.8	31.8	31.8	73	24.1	0	3	248	0.00	30.000 
06:05	31.8	31.8	31.8	72	23.8	0	2	248	0.00	30.007 
06:10	31.8	31.8	31.8	73	24.1	0	3	248	0.00	30.006 
06:15	31.8	31.8	31.8	73	24.1	0	1	248	0.00	30.008 
06:20	31.8	31.8	31.8	72	23.8	0	1	248	0.00	30.010 
06:25	31.8	31.8	31.8	72	23.8	0	4	248	0.00	30.012 
06:30	31.8	31.8	31.8	72	23.8	1	5	248	0.00	30.013 
06:35	31.8	31.8	31.8	72	23.8	0	3	270	0.00	30.015 
06:40	31.6	31.6	31.6	71	23.3	0	3	248	0.00	30.018 
06:45	31.8	31.8	31.8	71	23.5	0	1	248	0.00	30.020 
06:50	31.8	31.8	31.8	72	23.8	0	1	248	0.00	30.023 
06:55	31.8	31.8	31.8	72	23.8	0	1	248	0.00	30.024 
07:00	31.8	31.8	31.8	72	23.8	0	1	248	0.00	30.026 
07:05	31.8	31.8	31.8	72	23.8	1	3	248	0.00	30.028 
07:10	31.8	31.8	31.8	71	23.5	1	3	248	0.00	30.029 
07:15	31.8	31.8	31.8	71	23.5	1	4	248	0.00	30.029 
07:20	31.6	31.6	31.6	71	23.3	0	2	225	0.00	30.028 
07:25	31.6	31.6	31.6	72	23.6	0	1	225	0.00	30.028 
07:30	31.6	31.6	31.6	71	23.3	1	4	248	0.00	30.028 
07:35	31.6	31.6	31.6	72	23.6	1	3	248	0.00	30.027 
07:40	31.6	31.6	31.6	72	23.6	0	2	248	0.00	30.028 
07:45	31.5	31.5	31.5	72	23.5	0	1	248	0.00	30.027 
07:50	31.5	31.5	31.5	71	23.2	1	5	248	0.00	30.027 
07:55	31.5	31.5	31.5	72	23.5	0	2	248	0.00	30.027 
08:00	31.3	31.3	31.3	71	23.0	1	3	248	0.00	30.027 
08:05	31.3	31.3	31.3	71	23.0	0	1	248	0.00	30.026 
08:10	31.3	31.3	31.3	72	23.3	0	1	248	0.00	30.029 
08:15	31.3	31.3	31.3	73	23.7	0	1	248	0.00	30.028 
08:20	31.2	31.2	31.2	72	23.2	0	3	248	0.00	30.029 
08:25	31.2	31.2	31.2	72	23.2	0	2	248	0.00	30.030 
08:30	31.2	31.2	31.2	72	23.2	0	1	248	0.00	30.030 
08:35	31.0	31.0	31.0	73	23.4	0	1	248	0.00	30.030 
08:40	31.0	31.0	31.0	73	23.4	0	0	---	0.00	30.031 
08:45	30.9	30.9	30.9	73	23.3	0	0	---	0.00	30.030 
08:50	30.9	30.9	30.9	73	23.3	0	0	---	0.00	30.032 
08:55	30.7	30.7	30.7	74	23.4	0	0	---	0.00	30.036 
09:00	30.7	30.7	30.7	74	23.4	0	0	---	0.00	30.043 
09:05	30.9	30.9	30.9	75	23.9	0	1	248	0.00	30.043 
09:10	30.9	30.9	30.9	75	23.9	0	0	---	0.00	30.047 
09:15	31.0	31.0	31.0	76	24.3	0	1	248	0.00	30.050 
09:20	31.2	31.2	31.2	75	24.2	0	2	248	0.00	30.050 
09:25	31.5	31.5	31.5	73	23.9	0	1	248	0.00	30.049 
09:30	31.8	31.8	31.8	72	23.8	0	1	248	0.00	30.051 
09:35	32.1	32.1	32.1	71	23.8	0	2	90	0.00	30.054 
09:40	32.5	32.5	32.5	71	24.2	0	3	112	0.00	30.056 
09:45	32.7	32.7	32.7	70	24.0	0	2	112	0.00	30.058 
09:50	32.8	32.8	32.8	70	24.1	0	2	135	0.00	30.055 
09:55	32.8	32.8	32.8	70	24.1	1	3	90	0.00	30.058 
10:00	32.9	32.9	32.9	70	24.2	1	3	112	0.00	30.058 
10:05	32.9	32.9	32.9	70	24.2	0	2	112	0.00	30.059 
10:10	32.9	32.9	32.9	70	24.2	0	2	135	0.00	30.059 
10:15	32.9	32.9	32.9	69	23.9	1	2	135	0.00	30.060 
10:20	32.9	32.9	32.9	70	24.2	0	2	225	0.00	30.063 
10:25	33.1	33.1	33.1	70	24.4	1	3	248	0.00	30.066 
10:30	32.9	32.9	32.9	70	24.2	1	4	248	0.00	30.072 
10:35	33.1	33.1	33.1	69	24.1	1	3	90	0.00	30.066 
10:40	33.1	33.1	33.1	69	24.1	1	4	112	0.00	30.064 
10:45	33.2	33.2	33.2	70	24.5	0	2	135	0.00	30.067 
10:50	33.4	33.4	33.4	70	24.7	0	1	135	0.00	30.069 
10:55	33.7	33.7	33.7	69	24.6	0	2	135	0.00	30.065 
11:00	34.0	34.0	34.0	68	24.6	1	4	112	0.00	30.069 
11:05	34.3	34.3	34.3	69	25.2	0	3	112	0.00	30.073 
11:10	34.4	34.4	34.4	69	25.3	1	3	248	0.00	30.073 
11:15	34.6	34.6	34.6	69	25.5	0	2	248	0.00	30.072 
11:20	34.7	34.7	34.7	69	25.6	1	3	90	0.00	30.069 
11:25	34.6	34.6	34.6	69	25.5	1	3	90	0.00	30.065 
11:30	34.7	34.7	34.7	69	25.6	1	4	90	0.00	30.066 
11:35	34.9	34.9	34.9	69	25.8	1	5	90	0.00	30.066 
11:40	35.2	35.2	35.2	70	26.4	1	2	112	0.00	30.059 
11:45	35.2	35.2	35.2	68	25.7	1	4	112	0.00	30.054 
11:50	35.2	35.2	35.2	67	25.4	1	4	112	0.00	30.053 
11:55	35.2	35.2	35.2	68	25.7	1	4	112	0.00	30.048 
12:00	35.2	35.2	35.2	69	26.1	1	4	112	0.00	30.043 
12:05	35.3	35.3	35.3	70	26.5	1	3	112	0.00	30.042 
12:10	35.3	35.3	35.3	69	26.2	1	3	112	0.00	30.041 
12:15	35.3	35.3	35.3	69	26.2	2	3	68	0.00	30.035 
12:20	35.5	35.5	35.5	69	26.4	1	3	90	0.00	30.035 
12:25	35.8	35.8	35.8	69	26.6	1	3	112	0.00	30.030 
12:30	36.0	36.0	36.0	68	26.5	1	4	112	0.00	30.030 
12:35	36.3	36.3	36.3	69	27.1	1	4	112	0.00	30.030 
12:40	36.5	36.5	36.5	69	27.3	1	3	248	0.00	30.031 
12:45	36.6	36.6	36.6	69	27.4	1	4	90	0.00	30.032 
12:50	36.8	36.8	36.8	68	27.2	2	5	112	0.00	30.030 
12:55	36.9	36.9	36.9	67	27.0	2	5	112	0.00	30.029 
13:00	37.0	37.0	37.0	68	27.4	2	4	90	0.00	30.030 
13:05	37.2	37.2	37.2	68	27.6	1	5	135	0.00	30.030 
13:10	37.2	37.2	37.2	68	27.6	2	4	90	0.00	30.027 
13:15	37.2	37.2	37.2	69	28.0	2	5	112	0.00	30.023 
13:20	37.3	37.3	37.3	69	28.1	2	4	112	0.00	30.021 
13:25	37.5	37.5	37.5	72	29.3	2	5	112	0.00	30.018 
13:30	37.5	37.5	37.5	69	28.3	1	3	90	0.00	30.014 
13:35	37.5	37.5	37.5	68	27.9	1	4	112	0.00	30.011 
13:40	37.8	37.8	37.8	69	28.6	1	2	112	0.00	30.007 
13:45	38.0	38.0	38.0	70	29.1	1	2	112	0.00	30.006 
13:50	38.0	38.0	38.0	68	28.4	1	3	90	0.00	30.006 
13:55	38.2	38.2	38.2	68	28.6	1	4	112	0.00	30.006 
14:00	38.3	38.3	38.3	68	28.7	1	3	112	0.00	30.006 
14:05	38.6	38.6	38.6	69	29.3	2	5	90	0.00	30.002 
14:10	38.5	38.5	38.5	69	29.2	2	6	112	0.00	30.000 
14:15	38.3	38.3	38.3	68	28.7	2	6	112	0.00	30.000 
14:20	38.5	38.5	38.5	68	28.9	2	4	112	0.00	30.002 
14:25	38.6	38.6	38.6	69	29.3	2	4	90	0.00	29.997 
14:30	38.6	38.6	38.6	69	29.3	1	5	112	0.00	29.996 
14:35	38.8	38.8	38.8	68	29.2	2	6	112	0.00	29.999 
14:40	38.8	38.8	38.8	67	28.8	1	4	135	0.00	29.999 
14:45	38.9	38.9	38.9	68	29.3	1	4	112	0.00	29.997 
14:50	39.1	39.1	39.1	69	29.8	0	2	112	0.00	29.998 
14:55	39.1	39.1	39.1	68	29.4	1	4	112	0.00	29.995 
15:00	39.1	39.1	39.1	68	29.4	2	6	112	0.00	29.992 
15:05	39.2	39.2	39.2	68	29.5	1	4	112	0.00	29.992 
15:10	39.3	39.3	39.3	68	29.6	2	4	90	0.00	29.992 
15:15	39.3	39.3	39.3	66	28.9	1	4	135	0.00	29.993 
15:20	39.3	39.3	39.3	66	28.9	2	4	112	0.00	29.992 
15:25	39.3	39.3	39.3	66	28.9	2	6	112	0.00	29.992 
15:30	39.3	39.3	39.3	67	29.3	0	2	135	0.00	29.994 
15:35	39.6	39.6	39.6	67	29.6	1	2	135	0.00	29.999 
15:40	40.1	40.1	40.1	67	30.0	0	3	135	0.00	30.004 
15:45	40.3	40.3	40.3	66	29.9	0	2	225	0.00	30.005 
15:50	40.3	40.3	40.3	65	29.5	1	4	112	0.00	30.004 
15:55	40.2	40.2	40.2	65	29.4	0	2	112	0.00	30.005 
16:00	40.1	40.1	40.1	65	29.3	1	2	68	0.00	30.006 
16:05	39.9	39.9	39.9	65	29.1	1	3	90	0.00	30.006 
16:10	39.9	39.9	39.9	65	29.1	0	2	112	0.00	30.006 
16:15	39.8	39.8	39.8	65	29.0	1	3	112	0.00	30.008 
16:20	39.8	39.8	39.8	65	29.0	1	2	112	0.00	30.010 
16:25	39.8	39.8	39.8	65	29.0	1	3	112	0.00	30.009 
16:30	39.8	39.8	39.8	66	29.4	1	2	112	0.00	30.010 
16:35	39.6	39.6	39.6	66	29.2	1	4	112	0.00	30.009 
16:40	39.5	39.5	39.5	67	29.5	1	3	112	0.00	30.008 
16:45	39.3	39.3	39.3	68	29.6	1	2	112	0.00	30.007 
16:50	39.2	39.2	39.2	68	29.5	1	2	112	0.00	30.008 
16:55	39.1	39.1	39.1	69	29.8	1	2	112	0.00	30.008 
17:00	38.8	38.8	38.8	70	29.9	1	4	112	0.00	30.007 
17:05	38.6	38.6	38.6	70	29.7	0	1	135	0.00	30.008 
17:10	38.6	38.6	38.6	71	30.0	0	2	135	0.00	30.009 
17:15	38.6	38.6	38.6	71	30.0	0	1	135	0.00	30.010 
17:20	38.5	38.5	38.5	71	29.9	0	1	135	0.00	30.011 
17:25	38.5	38.5	38.5	72	30.3	0	1	135	0.00	30.012 
17:30	38.5	38.5	38.5	72	30.3	0	2	135	0.00	30.012 
17:35	38.3	38.3	38.3	73	30.4	0	1	135	0.00	30.015 
17:40	38.3	38.3	38.3	73	30.4	0	1	135	0.00	30.013 
17:45	38.2	38.2	38.2	73	30.3	0	1	135	0.00	30.012 
17:50	37.9	37.9	37.9	74	30.4	0	1	135	0.00	30.011 
17:55	37.6	37.6	37.6	74	30.1	0	1	135	0.00	30.009 
18:00	37.5	37.5	37.5	75	30.3	0	1	135	0.00	30.011 
18:05	37.2	37.2	37.2	75	30.0	0	1	135	0.00	30.014 
18:10	37.0	37.0	37.0	76	30.2	0	1	135	0.00	30.017 
18:15	36.9	36.9	36.9	76	30.1	0	0	---	0.00	30.014 
18:20	36.6	36.6	36.6	77	30.1	0	2	135	0.00	30.014 
18:25	36.3	36.3	36.3	77	29.8	0	0	---	0.00	30.013 
18:30	36.2	36.2	36.2	78	30.0	0	1	135	0.00	30.010 
18:35	36.2	36.2	36.2	78	30.0	0	2	135	0.00	30.009 
18:40	36.2	36.2	36.2	79	30.3	0	1	135	0.00	30.011 
18:45	36.0	36.0	36.0	79	30.1	0	0	---	0.00	30.013 
18:50	35.8	35.8	35.8	79	29.9	0	1	135	0.00	30.012 
18:55	35.6	35.6	35.6	80	30.1	0	0	---	0.00	30.012 
19:00	35.3	35.3	35.3	80	29.8	0	0	---	0.00	30.012 
19:05	35.0	35.0	35.0	80	29.5	0	0	---	0.00	30.013 
19:10	34.7	34.7	34.7	81	29.5	0	1	135	0.00	30.011 
19:15	34.4	34.4	34.4	82	29.5	0	0	---	0.00	30.011 
19:20	34.3	34.3	34.3	82	29.4	0	0	---	0.00	30.014 
19:25	34.1	34.1	34.1	83	29.5	0	1	135	0.00	30.014 
19:30	34.0	34.0	34.0	83	29.4	0	1	135	0.00	30.012 
19:35	34.3	34.3	34.3	83	29.7	0	1	135	0.00	30.013 
19:40	34.3	34.3	34.3	83	29.7	0	1	135	0.00	30.012 
19:45	34.3	34.3	34.3	83	29.7	0	0	---	0.00	30.012 
19:50	34.3	34.3	34.3	83	29.7	0	0	---	0.00	30.012 
19:55	34.1	34.1	34.1	83	29.5	0	1	135	0.00	30.013 
20:00	34.1	34.1	34.1	83	29.5	0	1	135	0.00	30.014 
20:05	34.1	34.1	34.1	83	29.5	0	0	---	0.00	30.013 
20:10	34.0	34.0	34.0	83	29.4	0	1	135	0.00	30.011 
20:15	34.0	34.0	34.0	83	29.4	0	1	135	0.00	30.011 
20:20	34.0	34.0	34.0	83	29.4	0	1	135	0.00	30.011 
20:25	34.0	34.0	34.0	83	29.4	0	1	135	0.00	30.010 
20:30	34.0	34.0	34.0	83	29.4	0	1	135	0.00	30.011 
20:35	33.8	33.8	33.8	83	29.2	0	1	135	0.00	30.011 
20:40	33.7	33.7	33.7	83	29.1	0	0	---	0.00	30.011 
20:45	33.4	33.4	33.4	83	28.8	0	0	---	0.00	30.010 
20:50	33.1	33.1	33.1	84	28.8	0	0	---	0.00	30.012 
20:55	32.7	32.7	32.7	84	28.4	0	0	---	0.00	30.012 
21:00	32.4	32.4	32.4	84	28.1	0	0	---	0.00	30.013 
21:05	32.2	32.2	32.2	85	28.2	0	0	---	0.00	30.013 
21:10	31.9	31.9	31.9	85	27.9	0	0	---	0.00	30.011 
21:15	31.8	31.8	31.8	86	28.1	0	0	---	0.00	30.010 
21:20	31.6	31.6	31.6	87	28.2	0	0	---	0.00	30.008 
21:25	31.6	31.6	31.6	88	28.5	0	0	---	0.00	30.010 
21:30	31.5	31.5	31.5	88	28.4	0	0	---	0.00	30.011 
21:35	31.5	31.5	31.5	88	28.4	0	0	---	0.00	30.014 
21:40	31.5	31.5	31.5	88	28.4	0	1	135	0.00	30.012 
21:45	31.3	31.3	31.3	88	28.2	0	0	---	0.00	30.009 
21:50	31.2	31.2	31.2	88	28.1	0	0	---	0.00	30.008 
21:55	30.9	30.9	30.9	88	27.8	0	0	---	0.00	30.010 
22:00	30.7	30.7	30.7	88	27.6	0	0	---	0.00	30.010 
22:05	30.6	30.6	30.6	88	27.5	0	0	---	0.00	30.007 
22:10	30.6	30.6	30.6	89	27.8	0	0	---	0.00	30.003 
22:15	30.6	30.6	30.6	90	28.0	0	0	---	0.00	30.001 
22:20	30.6	30.6	30.6	90	28.0	0	0	---	0.00	30.002 
22:25	30.6	30.6	30.6	90	28.0	0	0	---	0.00	29.999 
22:30	30.6	30.6	30.6	91	28.3	0	1	135	0.00	29.997 
22:35	31.0	31.0	31.0	91	28.7	0	1	135	0.00	29.997 
22:40	31.2	31.2	31.2	91	28.9	0	1	135	0.00	29.997 
22:45	31.5	31.5	31.5	91	29.2	0	1	135	0.00	29.994 
22:50	31.8	31.8	31.8	91	29.5	0	2	135	0.00	29.990 
22:55	32.1	32.1	32.1	90	29.5	1	3	112	0.00	29.985 
23:00	32.2	32.2	32.2	89	29.3	1	3	112	0.00	29.987 
23:05	32.4	32.4	32.4	89	29.5	1	3	90	0.00	29.984 
23:10	32.4	32.4	32.4	88	29.3	1	2	90	0.00	29.987 
23:15	32.4	32.4	32.4	88	29.3	0	1	90	0.00	29.990 
23:20	32.4	32.4	32.4	88	29.3	0	2	90	0.00	29.988 
23:25	32.4	32.4	32.4	88	29.3	0	1	90	0.00	29.985 
23:30	32.2	32.2	32.2	88	29.1	0	0	---	0.00	29.985 
23:35	32.2	32.2	32.2	88	29.1	0	0	---	0.00	29.988 
23:40	31.9	31.9	31.9	88	28.8	0	0	---	0.00	29.989 
23:45	31.8	31.8	31.8	88	28.7	0	0	---	0.00	29.987 
23:50	31.6	31.6	31.6	88	28.5	0	0	---	0.00	29.988 
23:55	31.3	31.3	31.3	88	28.2	0	0	---	0.00	29.989 

CoCoRaHS
IN-AL-39
A2 Web Hosting
Creative Commons License
GoDaddy
Look for:

loaded 2017-10-19 12:40:29 • last modified 2010-11-18 10:43:29
Privacy PolicyDisclaimer
• wx.awcolley.com is powered by PmWiki v.2002016 •
• all content (unless otherwise noted) © 2017 A W Colley